createdAt,value
2018-03-14T00:00:18.521Z,3.57
2018-03-14T00:02:21.011Z,3.50
2018-03-14T00:04:23.519Z,4.20
2018-03-14T00:06:26.041Z,3.43
2018-03-14T00:08:28.531Z,5.20
2018-03-14T00:10:31.029Z,3.87
2018-03-14T00:12:34.392Z,4.10
2018-03-14T00:14:36.936Z,4.10
2018-03-14T00:16:39.385Z,4.40
2018-03-14T00:18:41.851Z,4.40
2018-03-14T00:20:44.425Z,4.50
2018-03-14T00:22:46.907Z,5.00
2018-03-14T00:24:49.506Z,4.50
2018-03-14T00:26:52.000Z,4.77
2018-03-14T00:28:54.593Z,5.00
2018-03-14T00:30:57.081Z,5.80
2018-03-14T00:32:59.679Z,5.77
2018-03-14T00:35:02.153Z,5.77
2018-03-14T00:37:04.605Z,5.33
2018-03-14T00:39:07.158Z,5.87
2018-03-14T00:41:09.658Z,6.27
2018-03-14T00:43:12.249Z,6.27
2018-03-14T00:45:14.711Z,5.80
2018-03-14T00:47:17.190Z,6.50
2018-03-14T00:49:19.677Z,6.10
2018-03-14T00:51:22.226Z,5.87
2018-03-14T00:53:24.738Z,6.83
2018-03-14T00:55:27.203Z,6.13
2018-03-14T00:57:29.649Z,6.27
2018-03-14T00:59:32.195Z,6.20
2018-03-14T01:01:34.711Z,7.07
2018-03-14T01:03:37.173Z,6.40
2018-03-14T01:05:39.696Z,6.37
2018-03-14T01:07:42.116Z,6.47
2018-03-14T01:09:44.656Z,6.37
2018-03-14T01:11:47.153Z,6.57
2018-03-14T01:13:49.757Z,6.20
2018-03-14T01:15:52.336Z,6.90
2018-03-14T01:17:54.937Z,6.80
2018-03-14T01:19:57.392Z,6.80
2018-03-14T01:21:59.892Z,6.20
2018-03-14T01:24:02.358Z,5.53
2018-03-14T01:26:04.852Z,4.13
2018-03-14T01:28:07.402Z,3.57
2018-03-14T01:30:09.851Z,3.43
2018-03-14T01:32:12.338Z,3.33
2018-03-14T01:34:14.789Z,3.70
2018-03-14T01:36:17.378Z,3.60
2018-03-14T01:38:19.901Z,3.30
2018-03-14T01:40:22.466Z,3.10
2018-03-14T01:42:24.922Z,2.90
2018-03-14T01:44:27.429Z,3.00
2018-03-14T01:46:29.856Z,3.10
2018-03-14T01:48:32.343Z,3.07
2018-03-14T01:50:34.928Z,2.80
2018-03-14T01:52:37.369Z,2.50
2018-03-14T01:54:39.839Z,3.00
2018-03-14T01:56:42.414Z,3.10
2018-03-14T01:58:45.003Z,3.73
2018-03-14T02:00:47.474Z,3.10
2018-03-14T02:02:49.994Z,3.60
2018-03-14T02:04:52.479Z,4.07
2018-03-14T02:06:55.086Z,4.40
2018-03-14T02:08:57.542Z,5.13
2018-03-14T02:10:59.999Z,5.57
2018-03-14T02:13:02.483Z,6.33
2018-03-14T02:15:04.942Z,7.27
2018-03-14T02:17:07.439Z,6.67
2018-03-14T02:19:09.965Z,5.53
2018-03-14T02:21:12.468Z,6.70
2018-03-14T02:23:15.028Z,6.53
2018-03-14T02:25:17.492Z,5.70
2018-03-14T02:27:19.969Z,5.30
2018-03-14T02:29:22.469Z,5.40
2018-03-14T02:31:24.948Z,4.97
2018-03-14T02:33:27.493Z,4.60
2018-03-14T02:35:29.944Z,4.57
2018-03-14T02:37:32.577Z,5.00
2018-03-14T02:39:35.074Z,4.70
2018-03-14T02:41:37.565Z,4.80
2018-03-14T02:43:40.035Z,4.73
2018-03-14T02:45:42.538Z,4.73
2018-03-14T02:47:45.040Z,4.80
2018-03-14T02:49:47.472Z,5.10
2018-03-14T02:51:50.030Z,4.50
2018-03-14T02:53:52.470Z,4.93
2018-03-14T02:55:55.018Z,5.00
2018-03-14T02:57:57.515Z,4.70
2018-03-14T02:59:59.990Z,4.67
2018-03-14T03:02:02.492Z,5.90
2018-03-14T03:04:04.947Z,4.60
2018-03-14T03:06:07.486Z,4.37
2018-03-14T03:08:09.976Z,4.40
2018-03-14T03:10:12.405Z,5.10
2018-03-14T03:12:14.849Z,4.43
2018-03-14T03:14:17.333Z,5.37
2018-03-14T03:16:19.777Z,4.57
2018-03-14T03:18:22.338Z,4.90
2018-03-14T03:20:24.767Z,5.23
2018-03-14T03:22:27.240Z,4.57
2018-03-14T03:24:29.705Z,4.73
2018-03-14T03:26:32.205Z,4.60
2018-03-14T03:28:34.670Z,5.03
2018-03-14T03:30:37.224Z,4.63
2018-03-14T03:32:39.670Z,4.70
2018-03-14T03:34:42.198Z,4.40
2018-03-14T03:36:44.673Z,4.60
2018-03-14T03:38:47.102Z,4.40
2018-03-14T03:40:49.690Z,4.80
2018-03-14T03:42:52.161Z,4.37
2018-03-14T03:44:54.753Z,4.33
2018-03-14T03:46:57.245Z,3.63
2018-03-14T03:48:59.725Z,3.97
2018-03-14T03:51:02.225Z,4.07
2018-03-14T03:53:04.707Z,4.93
2018-03-14T03:55:07.205Z,4.00
2018-03-14T03:57:09.646Z,4.10
2018-03-14T03:59:12.083Z,3.90
2018-03-14T04:01:14.584Z,4.20
2018-03-14T04:03:17.078Z,3.77
2018-03-14T04:05:19.579Z,3.63
2018-03-14T04:07:22.064Z,4.00
2018-03-14T04:09:24.564Z,3.70
2018-03-14T04:11:26.975Z,3.47
2018-03-14T04:13:29.544Z,3.70
2018-03-14T04:15:32.148Z,3.63
2018-03-14T04:17:34.740Z,3.77
2018-03-14T04:19:37.214Z,3.70
2018-03-14T04:21:39.729Z,3.60
2018-03-14T04:23:42.145Z,4.40
2018-03-14T04:25:44.709Z,3.70
2018-03-14T04:27:47.208Z,3.47
2018-03-14T04:29:49.696Z,3.83
2018-03-14T04:31:52.170Z,3.30
2018-03-14T04:33:54.624Z,3.60
2018-03-14T04:35:57.073Z,3.40
2018-03-14T04:37:59.505Z,3.17
2018-03-14T04:40:01.976Z,3.37
2018-03-14T04:42:04.447Z,3.47
2018-03-14T04:44:06.953Z,2.97
2018-03-14T04:46:09.389Z,3.53
2018-03-14T04:48:11.865Z,3.20
2018-03-14T04:50:14.427Z,3.73
2018-03-14T04:52:16.889Z,3.50
2018-03-14T04:54:19.414Z,3.70
2018-03-14T04:56:21.953Z,4.33
2018-03-14T04:58:24.395Z,3.60
2018-03-14T05:00:27.000Z,4.20
2018-03-14T05:02:29.487Z,3.93
2018-03-14T05:04:31.979Z,3.90
2018-03-14T05:06:34.416Z,3.73
2018-03-14T05:08:37.804Z,3.93
2018-03-14T05:10:40.281Z,3.67
2018-03-14T05:12:42.841Z,4.10
2018-03-14T05:14:45.313Z,4.00
2018-03-14T05:16:47.739Z,3.40
2018-03-14T05:18:50.254Z,4.20
2018-03-14T05:20:52.848Z,3.90
2018-03-14T05:22:55.309Z,3.87
2018-03-14T05:24:57.831Z,4.00
2018-03-14T05:27:00.300Z,3.80
2018-03-14T05:29:02.818Z,3.87
2018-03-14T05:31:05.413Z,4.30
2018-03-14T05:33:07.871Z,4.20
2018-03-14T05:35:10.345Z,4.20
2018-03-14T05:37:12.797Z,4.57
2018-03-14T05:39:15.246Z,4.37
2018-03-14T05:41:17.781Z,3.90
2018-03-14T05:43:20.375Z,3.97
2018-03-14T05:45:22.814Z,3.90
2018-03-14T05:47:25.362Z,4.63
2018-03-14T05:49:27.880Z,4.10
2018-03-14T05:51:30.444Z,3.97
2018-03-14T05:53:32.904Z,4.20
2018-03-14T05:55:35.354Z,4.10
2018-03-14T05:57:37.924Z,4.43
2018-03-14T05:59:41.185Z,4.10
2018-03-14T06:01:43.728Z,4.07
2018-03-14T06:03:46.715Z,3.60
2018-03-14T06:05:49.182Z,3.47
2018-03-14T06:07:51.729Z,4.60
2018-03-14T06:09:54.221Z,3.93
2018-03-14T06:11:56.707Z,3.60
2018-03-14T06:13:59.200Z,3.83
2018-03-14T06:16:01.633Z,4.17
2018-03-14T06:18:04.163Z,4.10
2018-03-14T06:20:06.652Z,4.33
2018-03-14T06:22:09.100Z,4.17
2018-03-14T06:24:11.599Z,4.23
2018-03-14T06:26:14.105Z,3.50
2018-03-14T06:28:16.650Z,5.47
2018-03-14T06:30:19.264Z,4.77
2018-03-14T06:32:21.731Z,4.10
2018-03-14T06:34:24.335Z,4.63
2018-03-14T06:36:26.953Z,4.53
2018-03-14T06:38:29.507Z,4.00
2018-03-14T06:40:31.945Z,4.27
2018-03-14T06:42:34.512Z,4.40
2018-03-14T06:44:36.946Z,4.90
2018-03-14T06:46:39.447Z,4.70
2018-03-14T06:48:41.887Z,4.50
2018-03-14T06:50:44.381Z,5.07
2018-03-14T06:52:46.981Z,5.50
2018-03-14T06:54:49.436Z,5.10
2018-03-14T06:56:51.967Z,5.80
2018-03-14T06:59:06.242Z,5.00
2018-03-14T07:01:20.745Z,4.47
2018-03-14T07:03:35.057Z,4.43
2018-03-14T07:05:49.402Z,4.53
2018-03-14T07:07:51.890Z,4.70
2018-03-14T07:09:54.402Z,4.40
2018-03-14T07:11:56.906Z,4.57
2018-03-14T07:13:59.363Z,4.73
2018-03-14T07:16:01.819Z,4.90
2018-03-14T07:18:04.247Z,4.60
2018-03-14T07:20:08.662Z,5.00
2018-03-14T07:22:11.104Z,5.43
2018-03-14T07:24:13.599Z,4.83
2018-03-14T07:26:16.097Z,4.73
2018-03-14T07:28:18.590Z,5.00
2018-03-14T07:30:21.079Z,4.80
2018-03-14T07:32:23.586Z,4.90
2018-03-14T07:34:26.064Z,5.03
2018-03-14T07:36:28.552Z,5.03
2018-03-14T07:38:30.998Z,5.03
2018-03-14T07:40:33.541Z,4.80
2018-03-14T07:42:36.037Z,4.77
2018-03-14T07:44:38.529Z,4.60
2018-03-14T07:46:40.980Z,5.20
2018-03-14T07:48:43.468Z,4.80
2018-03-14T07:50:45.918Z,4.80
2018-03-14T07:52:48.403Z,5.37
2018-03-14T07:54:50.953Z,4.67
2018-03-14T07:56:53.487Z,4.60
2018-03-14T07:58:55.939Z,4.20
2018-03-14T08:00:58.397Z,4.30
2018-03-14T08:03:00.884Z,4.50
2018-03-14T08:05:03.332Z,4.83
2018-03-14T08:07:05.850Z,5.07
2018-03-14T08:09:08.349Z,5.07
2018-03-14T08:11:10.839Z,4.00
2018-03-14T08:13:13.332Z,4.73
2018-03-14T08:15:15.776Z,4.47
2018-03-14T08:17:18.268Z,4.00
2018-03-14T08:19:20.812Z,4.13
2018-03-14T08:21:23.297Z,4.13
2018-03-14T08:23:25.753Z,4.50
2018-03-14T08:25:28.247Z,3.93
2018-03-14T08:27:30.781Z,4.10
2018-03-14T08:29:33.193Z,4.60
2018-03-14T08:31:35.663Z,4.50
2018-03-14T08:33:38.092Z,4.57
2018-03-14T08:35:40.577Z,4.00
2018-03-14T08:37:43.052Z,4.00
2018-03-14T08:39:45.517Z,4.10
2018-03-14T08:41:47.983Z,4.27
2018-03-14T08:43:50.523Z,4.50
2018-03-14T08:45:53.047Z,4.80
2018-03-14T08:47:55.502Z,4.30
2018-03-14T08:49:58.051Z,4.73
2018-03-14T08:52:00.524Z,5.00
2018-03-14T08:54:03.092Z,5.13
2018-03-14T08:56:05.523Z,5.00
2018-03-14T08:58:07.958Z,4.97
2018-03-14T09:00:10.467Z,3.90
2018-03-14T09:02:12.916Z,4.27
2018-03-14T09:04:15.438Z,4.37
2018-03-14T09:06:17.948Z,4.10
2018-03-14T09:08:20.437Z,3.87
2018-03-14T09:10:22.938Z,3.10
2018-03-14T09:12:25.419Z,3.10
2018-03-14T09:14:28.018Z,3.20
2018-03-14T09:16:30.493Z,3.50
2018-03-14T09:18:32.934Z,3.27
2018-03-14T09:20:35.369Z,3.10
2018-03-14T09:22:37.848Z,3.53
2018-03-14T09:24:40.279Z,3.13
2018-03-14T09:26:42.874Z,3.97
2018-03-14T09:28:45.354Z,3.70
2018-03-14T09:30:47.862Z,3.00
2018-03-14T09:32:50.363Z,3.03
2018-03-14T09:34:52.959Z,2.87
2018-03-14T09:36:55.448Z,3.30
2018-03-14T09:38:57.875Z,3.60
2018-03-14T09:41:00.389Z,3.17
2018-03-14T09:43:02.919Z,3.43
2018-03-14T09:45:05.424Z,3.50
2018-03-14T09:47:07.947Z,3.47
2018-03-14T09:49:10.383Z,3.10
2018-03-14T09:51:12.899Z,3.17
2018-03-14T09:53:15.366Z,3.50
2018-03-14T09:55:17.820Z,3.07
2018-03-14T09:57:20.282Z,3.30
2018-03-14T09:59:22.869Z,3.17
2018-03-14T10:01:25.337Z,3.10
2018-03-14T10:03:27.777Z,3.20
2018-03-14T10:05:30.345Z,3.47
2018-03-14T10:07:32.835Z,2.97
2018-03-14T10:09:35.273Z,3.40
2018-03-14T10:11:37.773Z,2.93
2018-03-14T10:13:40.260Z,3.50
2018-03-14T10:15:44.263Z,3.20
2018-03-14T10:17:47.728Z,3.43
2018-03-14T10:19:51.074Z,3.43
2018-03-14T10:21:53.565Z,3.40
2018-03-14T10:23:56.058Z,3.17
2018-03-14T10:25:58.697Z,3.20
2018-03-14T10:28:01.147Z,3.13
2018-03-14T10:30:03.676Z,3.20
2018-03-14T10:32:06.135Z,3.40
2018-03-14T10:34:08.733Z,3.47
2018-03-14T10:36:11.225Z,3.53
2018-03-14T10:38:13.675Z,3.03
2018-03-14T10:40:16.154Z,3.20
2018-03-14T10:42:18.608Z,3.40
2018-03-14T10:44:21.198Z,3.60
2018-03-14T10:46:23.617Z,3.57
2018-03-14T10:48:26.145Z,3.47
2018-03-14T10:50:28.778Z,3.73
2018-03-14T10:52:31.231Z,3.33
2018-03-14T10:54:34.996Z,3.83
2018-03-14T10:56:37.486Z,3.57
2018-03-14T10:58:39.914Z,3.37
2018-03-14T11:00:48.096Z,3.57
2018-03-14T11:02:53.564Z,3.90
2018-03-14T11:05:02.712Z,4.60
2018-03-14T11:07:05.200Z,3.20
2018-03-14T11:09:07.692Z,3.43
2018-03-14T11:11:10.155Z,3.40
2018-03-14T11:13:13.791Z,3.80
2018-03-14T11:15:16.250Z,4.13
2018-03-14T11:17:18.800Z,3.40
2018-03-14T11:19:21.248Z,4.20
2018-03-14T11:21:23.713Z,4.00
2018-03-14T11:23:26.164Z,3.80
2018-03-14T11:25:28.660Z,3.77
2018-03-14T11:27:31.255Z,3.53
2018-03-14T11:29:33.854Z,3.30
2018-03-14T11:31:36.342Z,4.10
2018-03-14T11:33:38.807Z,3.63
2018-03-14T11:35:41.330Z,3.10
2018-03-14T11:37:43.814Z,3.77
2018-03-14T11:39:46.319Z,4.17
2018-03-14T11:41:48.826Z,3.80
2018-03-14T11:43:51.404Z,3.80
2018-03-14T11:45:53.875Z,3.50
2018-03-14T11:47:56.365Z,4.07
2018-03-14T11:49:58.879Z,3.80
2018-03-14T11:52:01.337Z,3.70
2018-03-14T11:54:03.864Z,3.70
2018-03-14T11:56:06.343Z,4.17
2018-03-14T11:58:08.959Z,4.07
2018-03-14T12:00:11.439Z,3.60
2018-03-14T12:02:13.991Z,7.00
2018-03-14T12:04:16.436Z,5.40
2018-03-14T12:06:18.914Z,6.10
2018-03-14T12:08:21.386Z,5.03
2018-03-14T12:10:23.854Z,4.10
2018-03-14T12:12:26.321Z,3.40
2018-03-14T12:14:28.806Z,3.87
2018-03-14T12:16:31.304Z,3.80
2018-03-14T12:18:33.938Z,3.50
2018-03-14T12:20:36.393Z,3.70
2018-03-14T12:22:38.916Z,3.60
2018-03-14T12:24:41.477Z,3.83
2018-03-14T12:26:43.955Z,4.03
2018-03-14T12:28:46.516Z,3.90
2018-03-14T12:30:49.010Z,3.90
2018-03-14T12:32:51.494Z,4.40
2018-03-14T12:34:53.971Z,3.63
2018-03-14T12:36:56.523Z,3.93
2018-03-14T12:38:58.935Z,4.07
2018-03-14T12:41:01.431Z,4.00
2018-03-14T12:43:03.949Z,4.80
2018-03-14T12:45:06.438Z,3.83
2018-03-14T12:47:09.008Z,5.00
2018-03-14T12:49:11.560Z,4.47
2018-03-14T12:51:14.004Z,3.77
2018-03-14T12:53:16.480Z,3.70
2018-03-14T12:55:19.077Z,4.20
2018-03-14T12:57:21.546Z,4.13
2018-03-14T12:59:24.159Z,3.80
2018-03-14T13:01:26.749Z,3.50
2018-03-14T13:03:29.359Z,3.57
2018-03-14T13:05:31.947Z,4.20
2018-03-14T13:07:34.445Z,3.93
2018-03-14T13:09:37.002Z,4.27
2018-03-14T13:11:39.552Z,3.90
2018-03-14T13:13:41.972Z,4.00
2018-03-14T13:15:44.455Z,4.00
2018-03-14T13:17:46.918Z,4.30
2018-03-14T13:19:49.367Z,3.73
2018-03-14T13:21:51.893Z,3.70
2018-03-14T13:23:54.316Z,3.97
2018-03-14T13:25:56.811Z,4.10
2018-03-14T13:27:59.267Z,3.63
2018-03-14T13:30:01.868Z,4.07
2018-03-14T13:32:04.363Z,4.57
2018-03-14T13:34:06.861Z,4.00
2018-03-14T13:36:09.455Z,3.97
2018-03-14T13:38:12.060Z,3.40
2018-03-14T13:40:14.503Z,3.90
2018-03-14T13:42:16.976Z,3.90
2018-03-14T13:44:19.420Z,4.33
2018-03-14T13:46:21.927Z,4.50
2018-03-14T13:48:24.436Z,4.50
2018-03-14T13:50:26.967Z,4.37
2018-03-14T13:52:29.502Z,4.57
2018-03-14T13:54:32.003Z,4.40
2018-03-14T13:56:34.482Z,5.57
2018-03-14T13:58:37.697Z,4.63
2018-03-14T14:00:40.281Z,5.63
2018-03-14T14:02:42.738Z,5.23
2018-03-14T14:04:45.270Z,4.90
2018-03-14T14:06:47.782Z,4.90
2018-03-14T14:08:50.378Z,4.87
2018-03-14T14:10:52.872Z,4.57
2018-03-14T14:12:55.458Z,5.40
2018-03-14T14:14:57.946Z,5.03
2018-03-14T14:17:00.404Z,5.37
2018-03-14T14:19:02.933Z,5.70
2018-03-14T14:21:05.417Z,5.80
2018-03-14T14:23:07.914Z,5.57
2018-03-14T14:25:10.371Z,5.90
2018-03-14T14:27:12.901Z,4.90
2018-03-14T14:29:15.394Z,6.03
2018-03-14T14:31:17.883Z,5.40
2018-03-14T14:33:20.492Z,5.60
2018-03-14T14:35:22.979Z,5.37
2018-03-14T14:37:25.467Z,6.00
2018-03-14T14:39:27.961Z,5.70
2018-03-14T14:41:30.530Z,5.60
2018-03-14T14:43:32.993Z,6.03
2018-03-14T14:45:35.554Z,6.20
2018-03-14T14:47:38.050Z,6.30
2018-03-14T14:49:40.549Z,5.40
2018-03-14T14:51:43.133Z,6.20
2018-03-14T14:53:45.664Z,6.30
2018-03-14T14:55:48.130Z,5.30
2018-03-14T14:57:50.677Z,6.53
2018-03-14T14:59:53.164Z,5.67
2018-03-14T15:01:55.693Z,5.93
2018-03-14T15:03:58.348Z,5.70
2018-03-14T15:06:00.798Z,5.37
2018-03-14T15:08:03.380Z,5.63
2018-03-14T15:10:05.889Z,5.70
2018-03-14T15:12:08.358Z,5.20
2018-03-14T15:14:10.886Z,5.30
2018-03-14T15:16:13.452Z,5.83
2018-03-14T15:18:15.928Z,6.33
2018-03-14T15:20:18.433Z,5.90
2018-03-14T15:22:21.039Z,5.40
2018-03-14T15:24:23.619Z,5.23
2018-03-14T15:26:26.162Z,6.30
2018-03-14T15:28:28.648Z,6.27
2018-03-14T15:30:31.215Z,5.90
2018-03-14T15:32:33.894Z,5.90
2018-03-14T15:34:36.378Z,5.80
2018-03-14T15:36:38.919Z,6.40
2018-03-14T15:38:41.484Z,6.17
2018-03-14T15:40:44.231Z,5.73
2018-03-14T15:42:46.623Z,5.63
2018-03-14T15:44:49.138Z,5.70
2018-03-14T15:46:51.764Z,6.00
2018-03-14T15:48:54.328Z,6.33
2018-03-14T15:50:56.910Z,6.07
2018-03-14T15:52:59.463Z,5.83
2018-03-14T15:55:02.050Z,6.10
2018-03-14T15:57:04.651Z,6.40
2018-03-14T15:59:07.256Z,5.37
2018-03-14T16:01:10.042Z,5.90
2018-03-14T16:03:12.507Z,5.70
2018-03-14T16:05:15.128Z,5.60
2018-03-14T16:07:17.749Z,5.53
2018-03-14T16:09:20.305Z,5.63
2018-03-14T16:11:22.820Z,6.23
2018-03-14T16:13:25.410Z,5.90
2018-03-14T16:15:27.855Z,6.07
2018-03-14T16:17:30.365Z,5.87
2018-03-14T16:19:32.884Z,6.90
2018-03-14T16:21:35.369Z,6.13
2018-03-14T16:23:37.878Z,5.97
2018-03-14T16:25:40.514Z,5.73
2018-03-14T16:27:43.079Z,5.50
2018-03-14T16:29:45.609Z,5.70
2018-03-14T16:31:48.326Z,5.63
2018-03-14T16:33:50.895Z,5.37
2018-03-14T16:35:53.444Z,6.00
2018-03-14T16:37:56.859Z,5.40
2018-03-14T16:39:59.372Z,6.13
2018-03-14T16:42:02.159Z,6.17
2018-03-14T16:44:04.916Z,6.33
2018-03-14T16:46:07.446Z,6.77
2018-03-14T16:48:09.951Z,6.60
2018-03-14T16:50:12.485Z,6.43
2018-03-14T16:52:15.396Z,7.40
2018-03-14T16:54:18.038Z,7.50
2018-03-14T16:56:20.688Z,7.40
2018-03-14T16:58:23.207Z,6.53
2018-03-14T17:00:25.779Z,6.67
2018-03-14T17:02:28.274Z,6.83
2018-03-14T17:04:31.791Z,6.43
2018-03-14T17:06:34.319Z,6.23
2018-03-14T17:08:36.775Z,6.50
2018-03-14T17:10:39.285Z,6.87
2018-03-14T17:12:41.797Z,6.57
2018-03-14T17:14:44.318Z,6.60
2018-03-14T17:16:46.768Z,7.33
2018-03-14T17:18:49.330Z,8.17
2018-03-14T17:20:51.866Z,11.70
2018-03-14T17:22:54.323Z,8.50
2018-03-14T17:24:56.805Z,6.70
2018-03-14T17:26:59.280Z,8.00
2018-03-14T17:29:01.853Z,7.10
2018-03-14T17:31:04.299Z,6.73
2018-03-14T17:33:06.790Z,8.23
2018-03-14T17:35:09.215Z,6.93
2018-03-14T17:37:11.722Z,6.80
2018-03-14T17:39:14.275Z,6.90
2018-03-14T17:41:16.714Z,7.10
2018-03-14T17:43:19.245Z,6.80
2018-03-14T17:45:21.729Z,7.30
2018-03-14T17:47:24.186Z,7.43
2018-03-14T17:49:26.740Z,7.43
2018-03-14T17:51:29.265Z,7.60
2018-03-14T17:53:31.761Z,7.53
2018-03-14T17:55:34.264Z,6.97
2018-03-14T17:57:36.748Z,7.33
2018-03-14T17:59:39.236Z,7.27
2018-03-14T18:01:41.735Z,7.30
2018-03-14T18:03:44.206Z,7.70
2018-03-14T18:05:47.280Z,8.70
2018-03-14T18:07:49.832Z,8.63
2018-03-14T18:09:52.349Z,8.40
2018-03-14T18:11:54.806Z,8.30
2018-03-14T18:13:57.316Z,7.50
2018-03-14T18:15:59.801Z,7.97
2018-03-14T18:18:02.310Z,7.33
2018-03-14T18:20:04.788Z,7.23
2018-03-14T18:22:07.315Z,7.50
2018-03-14T18:24:09.844Z,7.80
2018-03-14T18:26:12.369Z,7.10
2018-03-14T18:28:14.864Z,8.43
2018-03-14T18:30:17.382Z,7.40
2018-03-14T18:32:19.914Z,7.80
2018-03-14T18:34:22.362Z,7.87
2018-03-14T18:36:24.937Z,7.30
2018-03-14T18:38:27.455Z,7.60
2018-03-14T18:40:29.928Z,7.90
2018-03-14T18:42:32.460Z,7.40
2018-03-14T18:44:34.960Z,7.50
2018-03-14T18:46:37.512Z,7.97
2018-03-14T18:48:39.988Z,8.20
2018-03-14T18:50:42.596Z,8.30
2018-03-14T18:52:45.051Z,8.50
2018-03-14T18:54:47.578Z,8.33
2018-03-14T18:56:50.045Z,9.13
2018-03-14T18:58:52.752Z,8.47
2018-03-14T19:00:55.265Z,8.07
2018-03-14T19:02:58.284Z,8.23
2018-03-14T19:05:00.796Z,9.30
2018-03-14T19:07:03.314Z,10.10
2018-03-14T19:09:05.852Z,9.43
2018-03-14T19:11:08.446Z,9.10
2018-03-14T19:13:10.899Z,9.17
2018-03-14T19:15:13.538Z,8.13
2018-03-14T19:17:16.146Z,7.70
2018-03-14T19:19:18.670Z,7.53
2018-03-14T19:21:21.134Z,8.17
2018-03-14T19:23:23.635Z,8.00
2018-03-14T19:25:26.172Z,8.70
2018-03-14T19:27:28.699Z,7.70
2018-03-14T19:29:31.296Z,7.70
2018-03-14T19:31:33.781Z,8.63
2018-03-14T19:33:36.282Z,8.30
2018-03-14T19:35:38.873Z,8.00
2018-03-14T19:37:41.366Z,7.70
2018-03-14T19:39:43.962Z,7.50
2018-03-14T19:41:46.522Z,7.90
2018-03-14T19:43:49.007Z,8.20
2018-03-14T19:45:51.495Z,7.90
2018-03-14T19:47:53.966Z,7.93
2018-03-14T19:49:56.511Z,7.70
2018-03-14T19:51:59.141Z,8.43
2018-03-14T19:54:01.717Z,8.23
2018-03-14T19:56:04.175Z,8.70
2018-03-14T19:58:06.643Z,8.20
2018-03-14T20:00:09.202Z,8.37
2018-03-14T20:02:11.807Z,8.97
2018-03-14T20:04:14.392Z,8.37
2018-03-14T20:06:16.875Z,8.52
2018-03-14T20:08:19.440Z,7.80
2018-03-14T20:10:21.921Z,9.97
2018-03-14T20:12:24.571Z,9.03
2018-03-14T20:14:27.093Z,9.20
2018-03-14T20:16:29.568Z,8.80
2018-03-14T20:18:32.071Z,8.47
2018-03-14T20:20:34.567Z,8.33
2018-03-14T20:22:37.052Z,8.10
2018-03-14T20:24:39.588Z,7.90
2018-03-14T20:26:42.127Z,9.10
2018-03-14T20:28:44.722Z,8.77
2018-03-14T20:30:47.223Z,9.93
2018-03-14T20:32:49.776Z,9.75
2018-03-14T20:34:52.400Z,10.00
2018-03-14T20:36:54.935Z,9.20
2018-03-14T20:38:57.537Z,9.67
2018-03-14T20:41:00.092Z,10.00
2018-03-14T20:43:02.601Z,10.90
2018-03-14T20:45:05.115Z,10.10
2018-03-14T20:47:07.588Z,9.93
2018-03-14T20:49:10.172Z,10.63
2018-03-14T20:51:12.740Z,10.37
2018-03-14T20:53:15.359Z,9.87
2018-03-14T20:55:17.951Z,10.50
2018-03-14T20:57:20.542Z,10.60
2018-03-14T20:59:23.082Z,10.20
2018-03-14T21:01:25.837Z,10.70
2018-03-14T21:03:28.445Z,10.70
2018-03-14T21:05:30.952Z,10.90
2018-03-14T21:07:33.522Z,10.63
2018-03-14T21:09:36.057Z,10.73
2018-03-14T21:11:38.548Z,10.93
2018-03-14T21:13:41.034Z,11.17
2018-03-14T21:15:43.488Z,11.00
2018-03-14T21:17:45.978Z,11.07
2018-03-14T21:19:48.590Z,10.77
2018-03-14T21:21:51.093Z,11.20
2018-03-14T21:23:53.713Z,9.50
2018-03-14T21:25:56.372Z,10.10
2018-03-14T21:27:58.967Z,10.40
2018-03-14T21:30:01.426Z,10.20
2018-03-14T21:32:03.971Z,10.43
2018-03-14T21:34:06.533Z,10.70
2018-03-14T21:36:09.042Z,9.83
2018-03-14T21:38:11.577Z,9.33
2018-03-14T21:40:14.131Z,9.40
2018-03-14T21:42:16.752Z,9.70
2018-03-14T21:44:19.272Z,11.02
2018-03-14T21:46:21.822Z,10.70
2018-03-14T21:48:24.307Z,8.60
2018-03-14T21:50:26.802Z,9.67
2018-03-14T21:52:29.337Z,10.13
2018-03-14T21:54:31.839Z,8.83
2018-03-14T21:56:34.376Z,8.90
2018-03-14T21:58:36.987Z,9.33
2018-03-14T22:00:39.458Z,9.70
2018-03-14T22:02:42.032Z,9.97
2018-03-14T22:04:44.512Z,9.10
2018-03-14T22:06:47.007Z,10.10
2018-03-14T22:08:49.646Z,10.13
2018-03-14T22:10:52.006Z,8.80
2018-03-14T22:12:54.636Z,9.63
2018-03-14T22:14:57.328Z,8.90
2018-03-14T22:16:59.924Z,10.17
2018-03-14T22:19:02.394Z,9.90
2018-03-14T22:21:04.939Z,9.37
2018-03-14T22:23:07.504Z,9.13
2018-03-14T22:25:10.025Z,10.30
2018-03-14T22:27:12.517Z,8.80
2018-03-14T22:29:14.974Z,9.20
2018-03-14T22:31:17.578Z,8.00
2018-03-14T22:33:20.176Z,8.90
2018-03-14T22:35:22.646Z,8.57
2018-03-14T22:37:25.113Z,8.40
2018-03-14T22:39:27.619Z,8.57
2018-03-14T22:41:30.082Z,9.10
2018-03-14T22:43:32.592Z,8.87
2018-03-14T22:45:35.137Z,8.17
2018-03-14T22:47:37.604Z,8.40
2018-03-14T22:49:40.069Z,8.60
2018-03-14T22:51:42.511Z,8.40
2018-03-14T22:53:45.012Z,8.40
2018-03-14T22:55:47.446Z,8.23
2018-03-14T22:57:49.903Z,9.17
2018-03-14T22:59:52.492Z,8.63
2018-03-14T23:01:55.014Z,9.07
2018-03-14T23:03:57.568Z,8.57
2018-03-14T23:06:00.018Z,8.60
2018-03-14T23:08:02.562Z,9.33
2018-03-14T23:10:05.069Z,8.80
2018-03-14T23:12:07.553Z,9.17
2018-03-14T23:14:10.019Z,7.87
2018-03-14T23:16:12.529Z,8.37
2018-03-14T23:18:14.949Z,8.07
2018-03-14T23:20:17.386Z,8.03
2018-03-14T23:22:19.925Z,8.40
2018-03-14T23:24:22.358Z,8.70
2018-03-14T23:26:24.893Z,8.25
2018-03-14T23:28:27.388Z,8.27
2018-03-14T23:30:29.880Z,7.87
2018-03-14T23:32:32.313Z,7.90
2018-03-14T23:34:34.829Z,8.50
2018-03-14T23:36:37.355Z,7.60
2018-03-14T23:38:39.843Z,8.80
2018-03-14T23:40:42.349Z,7.80
2018-03-14T23:42:44.812Z,7.77
2018-03-14T23:44:47.403Z,8.07
2018-03-14T23:46:50.715Z,7.80
2018-03-14T23:48:53.204Z,8.50
2018-03-14T23:50:55.647Z,8.93
2018-03-14T23:52:58.222Z,8.50
2018-03-14T23:55:00.713Z,7.63
2018-03-14T23:57:03.254Z,8.02
2018-03-14T23:59:05.714Z,7.50
